Time;durP1;ratioP1;P1;durP2;ratioP2;P2;SDS_P1;SDS_P2;PMS_P1;PMS_P2;Temp;Humidity;BMP_temperature;BMP_pressure;BME280_temperature;BME280_humidity;BME280_pressure;Samples;Min_cycle;Max_cycle;Signal;HPM_P1;HPM_P2
2022/03/25 00:00:30;;;;;;;34.30;25.33;;;;;;;8.88;64.03;102779.44;5093780;28;20028;-88
2022/03/25 00:02:58;;;;;;;35.92;24.98;;;;;;;8.83;63.30;102779.91;5112622;28;20354;-88
2022/03/25 00:05:25;;;;;;;32.55;23.67;;;;;;;8.78;64.42;102779.50;5079498;28;20460;-88
2022/03/25 00:07:51;;;;;;;32.40;24.02;;;;;;;8.75;63.80;102786.09;5113195;28;20027;-88
2022/03/25 00:10:21;;;;;;;34.47;25.02;;;;;;;8.72;63.85;102783.69;5113038;28;20024;-87
2022/03/25 00:12:47;;;;;;;33.78;24.13;;;;;;;8.71;64.45;102783.84;5096722;28;20031;-88
2022/03/25 00:15:14;;;;;;;35.25;25.20;;;;;;;8.70;64.52;102784.88;5095722;28;20483;-88
2022/03/25 00:17:40;;;;;;;36.20;25.83;;;;;;;8.67;64.33;102783.31;5112966;28;20035;-89
2022/03/25 00:20:08;;;;;;;35.15;24.70;;;;;;;8.64;64.15;102785.50;5078818;28;20024;-88
2022/03/25 00:22:34;;;;;;;35.97;24.52;;;;;;;8.62;64.46;102792.91;5079176;28;20070;-88
2022/03/25 00:25:08;;;;;;;39.65;26.98;;;;;;;8.58;62.42;102787.81;5096871;28;20471;-88
2022/03/25 00:27:39;;;;;;;35.60;25.30;;;;;;;8.54;64.49;102790.97;5062708;28;20020;-88
2022/03/25 00:30:05;;;;;;;34.25;24.23;;;;;;;8.50;65.01;102801.25;5112823;28;20073;-88
2022/03/25 00:32:40;;;;;;;35.60;24.85;;;;;;;8.49;65.08;102796.84;5078488;28;20051;-88
2022/03/25 00:35:16;;;;;;;34.55;25.27;;;;;;;8.45;63.54;102798.16;5079752;28;20123;-88
2022/03/25 00:37:42;;;;;;;33.28;24.38;;;;;;;8.39;64.94;102788.75;5112365;28;20040;-89
2022/03/25 00:40:08;;;;;;;34.70;23.92;;;;;;;8.36;64.58;102786.38;5095885;28;20122;-88
2022/03/25 00:42:36;;;;;;;35.13;24.63;;;;;;;8.34;65.08;102793.78;5112239;28;20531;-88
2022/03/25 00:45:03;;;;;;;36.63;25.35;;;;;;;8.32;64.44;102787.66;5095443;28;20340;-88
2022/03/25 00:47:29;;;;;;;34.17;24.73;;;;;;;8.28;65.48;102799.78;5096427;28;20024;-88
2022/03/25 00:49:55;;;;;;;35.00;23.55;;;;;;;8.24;65.44;102793.84;5078650;28;20410;-88
2022/03/25 00:52:20;;;;;;;37.08;24.85;;;;;;;8.21;65.11;102791.44;5095585;28;20074;-88
2022/03/25 00:54:50;;;;;;;32.45;23.17;;;;;;;8.16;65.50;102792.91;5111697;28;20040;-88
2022/03/25 00:57:16;;;;;;;31.15;22.50;;;;;;;8.13;65.94;102788.66;5096192;28;20036;-88
2022/03/25 00:59:42;;;;;;;31.75;22.08;;;;;;;8.09;65.46;102784.56;5095240;28;20118;-89
2022/03/25 01:02:08;;;;;;;33.50;23.27;;;;;;;8.05;65.60;102785.88;5079050;28;20177;-89
2022/03/25 01:04:36;;;;;;;33.17;23.67;;;;;;;8.03;65.64;102793.25;5078403;28;20043;-89
2022/03/25 01:07:02;;;;;;;36.58;25.38;;;;;;;7.98;66.04;102782.91;5095111;28;20024;-89
2022/03/25 01:09:28;;;;;;;33.78;24.42;;;;;;;7.93;66.64;102790.63;5095208;28;20020;-89
2022/03/25 01:11:54;;;;;;;37.40;25.90;;;;;;;7.92;65.85;102790.78;5094667;28;20016;-89
2022/03/25 01:14:19;;;;;;;33.55;23.02;;;;;;;7.86;66.70;102801.16;5095036;28;20027;-89
2022/03/25 01:16:48;;;;;;;30.63;21.92;;;;;;;7.84;65.65;102788.81;5112083;28;20405;-89
2022/03/25 01:19:14;;;;;;;35.53;24.48;;;;;;;7.82;65.81;102799.75;5111678;28;20015;-88
2022/03/25 01:21:39;;;;;;;34.35;24.00;;;;;;;7.76;66.87;102794.13;5095674;28;20032;-88
2022/03/25 01:24:08;;;;;;;35.45;24.40;;;;;;;7.72;66.02;102793.53;5111667;28;20016;-89
2022/03/25 01:26:36;;;;;;;34.67;24.25;;;;;;;7.66;66.21;102795.03;5111705;28;20111;-88
2022/03/25 01:29:10;;;;;;;34.63;22.90;;;;;;;7.63;65.27;102789.03;5078188;28;20032;-88
2022/03/25 01:31:38;;;;;;;32.83;23.20;;;;;;;7.54;66.40;102786.25;5078645;28;20028;-88
2022/03/25 01:34:03;;;;;;;36.95;25.15;;;;;;;7.52;65.72;102782.81;5111451;28;20431;-88
2022/03/25 01:36:31;;;;;;;36.50;25.20;;;;;;;7.41;66.07;102771.34;5095044;28;20052;-88
2022/03/25 01:39:01;;;;;;;35.95;25.98;;;;;;;7.40;65.93;102778.63;5095313;28;20028;-88
2022/03/25 01:41:34;;;;;;;34.20;24.35;;;;;;;7.38;65.98;102772.50;5111928;28;20081;-88
2022/03/25 01:44:04;;;;;;;33.28;24.23;;;;;;;7.35;65.43;102772.78;5095310;28;20048;-88
2022/03/25 01:46:35;;;;;;;35.00;24.77;;;;;;;7.29;65.48;102773.38;5094209;28;20024;-88
2022/03/25 01:49:13;;;;;;;;;;;;;;;;;;;;;
2022/03/25 01:51:41;;;;;;;33.28;23.60;;;;;;;7.23;66.47;102776.66;5096326;28;20034;-88
2022/03/25 01:54:24;;;;;;;33.30;23.52;;;;;;;7.15;64.57;102769.31;5077636;28;20031;-88
2022/03/25 01:57:27;;;;;;;33.75;23.30;;;;;;;7.10;65.08;102768.88;5091207;28;20032;-87
2022/03/25 02:00:18;;;;;;;31.73;22.90;;;;;;;7.10;65.82;102780.53;5094977;28;20030;-88
2022/03/25 02:02:44;;;;;;;33.58;23.02;;;;;;;7.02;66.20;102775.00;5094039;28;20039;-88
2022/03/25 02:05:10;;;;;;;33.60;22.90;;;;;;;6.97;66.57;102777.31;5111402;28;20032;-88
2022/03/25 02:07:37;;;;;;;35.00;24.77;;;;;;;6.96;66.19;102781.00;5093453;28;20027;-87
2022/03/25 02:10:05;;;;;;;32.50;22.58;;;;;;;6.85;67.08;102773.91;5076973;28;20372;-88
2022/03/25 02:12:40;;;;;;;32.53;22.30;;;;;;;6.82;66.55;102777.72;5093633;28;20434;-88
2022/03/25 02:15:11;;;;;;;32.58;24.15;;;;;;;6.79;66.25;102772.63;5094769;28;20039;-88
2022/03/25 02:17:46;;;;;;;31.10;22.40;;;;;;;6.74;66.82;102774.03;5111537;28;20409;-87
2022/03/25 02:20:13;;;;;;;31.60;22.95;;;;;;;6.68;67.03;102781.69;5093776;28;20024;-88
2022/03/25 02:22:52;;;;;;;31.27;22.42;;;;;;;6.66;66.35;102772.06;5094945;28;20066;-88
2022/03/25 02:25:30;;;;;;;;;;;;;;;;;;;;;
2022/03/25 02:28:02;;;;;;;34.28;23.13;;;;;;;6.62;66.21;102778.72;5096199;28;20446;-89
2022/03/25 02:30:29;;;;;;;32.85;23.73;;;;;;;6.58;66.16;102778.16;5094587;28;20020;-88
2022/03/25 02:33:00;;;;;;;33.03;22.92;;;;;;;6.55;66.20;102778.44;5095281;28;20028;-89
2022/03/25 02:35:42;;;;;;;34.42;23.45;;;;;;;6.59;63.54;102787.94;5111519;28;20012;-88
2022/03/25 02:38:11;;;;;;;29.10;20.90;;;;;;;6.47;65.82;102775.59;5094177;28;20034;-88
2022/03/25 02:40:40;;;;;;;30.27;21.40;;;;;;;6.43;66.21;102774.19;5110663;28;20024;-88
2022/03/25 02:43:06;;;;;;;30.55;21.83;;;;;;;6.40;65.56;102769.91;5110147;28;20024;-88
2022/03/25 02:45:34;;;;;;;30.85;21.48;;;;;;;6.39;65.97;102770.06;5093632;28;20135;-87
2022/03/25 02:48:05;;;;;;;28.70;19.95;;;;;;;6.33;65.80;102771.47;5110137;28;20034;-88
2022/03/25 02:50:31;;;;;;;26.80;19.70;;;;;;;6.27;66.53;102774.72;5093525;28;20040;-88
2022/03/25 02:53:06;;;;;;;28.70;19.80;;;;;;;6.22;66.33;102772.44;5094200;28;20032;-87
2022/03/25 02:55:37;;;;;;;28.00;19.52;;;;;;;6.25;65.65;102782.94;5094662;28;20464;-88
2022/03/25 02:58:08;;;;;;;28.58;20.02;;;;;;;6.27;66.02;102777.41;5109685;28;20403;-87
2022/03/25 03:00:37;;;;;;;29.20;21.05;;;;;;;6.14;65.65;102761.50;5094460;28;20348;-86
2022/03/25 03:03:05;;;;;;;30.42;20.13;;;;;;;6.11;64.78;102764.47;5092953;28;20035;-87
2022/03/25 03:05:33;;;;;;;30.35;20.25;;;;;;;6.07;66.01;102763.91;5092606;28;20032;-87
2022/03/25 03:07:58;;;;;;;30.65;19.38;;;;;;;6.06;65.30;102774.84;5093596;28;20099;-87
2022/03/25 03:10:32;;;;;;;30.48;20.65;;;;;;;6.01;64.90;102775.25;5109004;28;20056;-87
2022/03/25 03:13:10;;;;;;;28.10;20.48;;;;;;;5.99;65.36;102777.22;5109733;28;20028;-87
2022/03/25 03:15:38;;;;;;;31.38;21.33;;;;;;;5.98;65.68;102775.53;5093547;28;20465;-87
2022/03/25 03:18:16;;;;;;;29.27;20.70;;;;;;;5.92;65.67;102773.31;5094004;28;20028;-87
2022/03/25 03:20:51;;;;;;;27.27;19.38;;;;;;;5.91;64.81;102772.50;5110538;28;20459;-87
2022/03/25 03:23:17;;;;;;;29.90;20.40;;;;;;;5.90;66.56;102776.16;5093243;28;20519;-87
2022/03/25 03:25:42;;;;;;;27.88;19.35;;;;;;;5.88;65.90;102774.63;5092647;28;20024;-87
2022/03/25 03:28:08;;;;;;;28.80;20.13;;;;;;;5.85;66.17;102777.59;5094110;28;20024;-87
2022/03/25 03:30:34;;;;;;;28.58;19.70;;;;;;;5.78;66.34;102771.88;5109750;28;20028;-87
2022/03/25 03:33:14;;;;;;;29.48;20.63;;;;;;;5.74;65.71;102773.13;5109260;28;20031;-87
2022/03/25 03:35:39;;;;;;;29.50;20.50;;;;;;;5.70;65.72;102777.09;5114175;28;20130;-87
2022/03/25 03:38:27;;;;;;;28.50;19.55;;;;;;;5.67;65.64;102771.97;5096640;28;20166;-87
2022/03/25 03:41:04;;;;;;;29.23;19.60;;;;;;;5.67;65.72;102777.34;5097637;28;20106;-87
2022/03/25 03:43:39;;;;;;;;;;;;;;;;;;;;;
2022/03/25 03:46:14;;;;;;;28.80;19.77;;;;;;;5.53;65.56;102767.81;5098294;28;20023;-87
2022/03/25 03:48:50;;;;;;;29.33;20.25;;;;;;;5.50;66.87;102770.78;5113474;28;20478;-87
2022/03/25 03:51:26;;;;;;;28.13;19.48;;;;;;;5.48;66.85;102772.72;5096937;28;20048;-87
2022/03/25 03:53:57;;;;;;;29.70;19.52;;;;;;;5.40;66.95;102765.34;5097101;28;20363;-87
2022/03/25 03:56:22;;;;;;;28.63;19.48;;;;;;;5.45;67.61;102787.34;5080242;28;20391;-87
2022/03/25 03:58:48;;;;;;;28.88;20.02;;;;;;;5.39;67.52;102780.66;5095821;28;20052;-87
2022/03/25 04:01:16;;;;;;;28.75;19.70;;;;;;;5.34;67.35;102774.78;5096396;28;20039;-90
2022/03/25 04:03:53;;;;;;;28.58;20.15;;;;;;;5.31;66.68;102779.59;5096276;28;20032;-89
2022/03/25 04:06:22;;;;;;;26.85;19.45;;;;;;;5.33;66.94;102785.69;5108873;28;20127;-90
2022/03/25 04:08:48;;;;;;;28.25;19.55;;;;;;;5.27;66.26;102789.81;5096322;28;20027;-90
2022/03/25 04:11:15;;;;;;;27.13;19.52;;;;;;;5.19;67.96;102773.44;5114370;28;20509;-91
2022/03/25 04:13:41;;;;;;;30.70;20.98;;;;;;;5.12;68.62;102777.66;5096347;28;20028;-90
2022/03/25 04:16:08;;;;;;;27.33;19.48;;;;;;;5.10;68.62;102781.31;5113015;28;20030;-89
2022/03/25 04:18:34;;;;;;;28.65;19.25;;;;;;;5.04;67.20;102771.09;5113250;28;20127;-89
2022/03/25 04:21:02;;;;;;;28.75;20.40;;;;;;;5.01;67.12;102776.72;5113163;28;20491;-89
2022/03/25 04:23:37;;;;;;;26.52;19.00;;;;;;;5.08;66.17;102794.06;5113392;28;20085;-90
2022/03/25 04:26:09;;;;;;;27.02;19.42;;;;;;;4.95;67.97;102779.94;5096200;28;20024;-90
2022/03/25 04:28:34;;;;;;;30.08;21.27;;;;;;;4.99;66.96;102800.25;5112572;28;20035;-89
2022/03/25 04:31:00;;;;;;;30.52;20.88;;;;;;;4.96;67.21;102796.94;5095975;28;20036;-89
2022/03/25 04:33:26;;;;;;;32.15;21.77;;;;;;;4.93;66.61;102792.66;5112418;28;20106;-89
2022/03/25 04:35:54;;;;;;;30.08;21.20;;;;;;;4.93;66.23;102803.41;5112455;28;20474;-90
2022/03/25 04:38:19;;;;;;;32.63;22.30;;;;;;;4.91;66.34;102810.78;5078699;28;20024;-90
2022/03/25 04:40:48;;;;;;;30.20;21.20;;;;;;;4.81;66.74;102793.72;5095387;28;20085;-89
2022/03/25 04:43:14;;;;;;;29.42;21.08;;;;;;;4.80;66.99;102800.06;5096771;28;20103;-90
2022/03/25 04:45:41;;;;;;;30.60;20.52;;;;;;;4.74;67.70;102796.94;5094930;28;20142;-89
2022/03/25 04:48:11;;;;;;;33.00;22.70;;;;;;;4.76;68.33;102810.25;5095254;28;20027;-89
2022/03/25 04:50:45;;;;;;;31.48;22.83;;;;;;;4.77;66.53;102809.28;5096044;28;20028;-87
2022/03/25 04:53:15;;;;;;;31.08;22.63;;;;;;;4.69;67.42;102791.06;5096610;28;20028;-88
2022/03/25 04:55:43;;;;;;;32.58;22.90;;;;;;;4.66;67.52;102798.53;5095506;28;20028;-89
2022/03/25 04:58:11;;;;;;;32.83;23.65;;;;;;;4.73;67.15;102799.75;5111731;28;20040;-89
2022/03/25 05:00:37;;;;;;;35.08;22.70;;;;;;;4.67;68.07;102808.34;5094901;28;20036;-90
2022/03/25 05:03:07;;;;;;;32.53;21.35;;;;;;;4.68;68.25;102812.72;5094728;28;20028;-90
2022/03/25 05:05:37;;;;;;;30.33;20.58;;;;;;;4.58;67.55;102799.19;5094623;28;20142;-89
2022/03/25 05:08:03;;;;;;;29.73;20.73;;;;;;;4.54;67.73;102800.44;5095774;28;20042;-89
2022/03/25 05:10:39;;;;;;;29.05;20.55;;;;;;;4.53;68.16;102798.72;5111536;28;20367;-89
2022/03/25 05:13:04;;;;;;;30.98;21.02;;;;;;;4.49;68.80;102800.81;5111708;28;20106;-89
2022/03/25 05:15:33;;;;;;;28.60;20.50;;;;;;;4.54;68.93;102808.50;5094555;28;20052;-89
2022/03/25 05:18:02;;;;;;;30.05;20.52;;;;;;;4.44;68.16;102803.00;5095283;28;20024;-90
2022/03/25 05:20:29;;;;;;;31.00;20.95;;;;;;;4.47;67.77;102815.34;5111474;28;20410;-89
2022/03/25 05:23:08;;;;;;;;;;;;;;;;;;;;;
2022/03/25 05:25:34;;;;;;;30.77;21.33;;;;;;;4.46;67.96;102819.00;5096696;28;20034;-90
2022/03/25 05:28:12;;;;;;;32.40;22.88;;;;;;;4.43;67.59;102811.22;5111529;28;20111;-90
2022/03/25 05:30:46;;;;;;;31.42;21.75;;;;;;;4.45;68.18;102820.00;5111781;28;20379;-90
2022/03/25 05:33:14;;;;;;;29.80;21.42;;;;;;;4.40;68.18;102820.41;5112206;28;20418;-90
2022/03/25 05:35:40;;;;;;;31.50;21.88;;;;;;;4.32;68.75;102804.03;5095683;28;20448;-89
2022/03/25 05:38:14;;;;;;;32.35;21.17;;;;;;;4.30;68.49;102811.38;5094345;28;20019;-89
2022/03/25 05:40:44;;;;;;;28.95;20.33;;;;;;;4.28;69.85;102811.50;5111146;28;20483;-91
2022/03/25 05:43:28;;;;;;;;;;;;;;;;;;;;;
2022/03/25 05:45:54;;;;;;;30.38;21.10;;;;;;;4.28;69.17;102818.69;5096140;28;20027;-89
2022/03/25 05:48:19;;;;;;;30.25;20.85;;;;;;;4.33;69.94;102824.56;5110726;28;20127;-90
2022/03/25 05:50:51;;;;;;;31.92;21.38;;;;;;;4.31;69.27;102818.44;5110718;28;20024;-89
2022/03/25 05:53:16;;;;;;;31.27;22.02;;;;;;;4.32;69.45;102823.69;5094097;28;20031;-89
2022/03/25 05:55:42;;;;;;;30.02;21.17;;;;;;;4.41;69.43;102835.53;5110757;28;20099;-89
2022/03/25 05:58:11;;;;;;;31.55;21.77;;;;;;;4.38;69.83;102820.53;5094027;28;20075;-88
2022/03/25 06:00:39;;;;;;;31.05;21.65;;;;;;;4.39;69.82;102818.69;5077647;28;20032;-90
2022/03/25 06:03:05;;;;;;;30.98;21.67;;;;;;;4.41;69.50;102822.09;5076496;28;20483;-90
2022/03/25 06:05:34;;;;;;;28.85;20.58;;;;;;;4.48;69.18;102831.34;5093529;28;20020;-89
2022/03/25 06:07:59;;;;;;;30.15;21.40;;;;;;;4.48;68.80;102827.81;5094458;28;20084;-90
2022/03/25 06:10:25;;;;;;;30.65;21.50;;;;;;;4.54;69.35;102838.06;5110310;28;20413;-86
2022/03/25 06:12:50;;;;;;;32.17;21.92;;;;;;;4.60;69.41;102848.31;5093432;28;20463;-83
2022/03/25 06:15:16;;;;;;;31.90;22.10;;;;;;;4.60;68.95;102836.72;5094273;28;20024;-85
2022/03/25 06:17:48;;;;;;;33.40;22.17;;;;;;;4.70;68.38;102846.56;5093312;28;20039;-85
2022/03/25 06:20:17;;;;;;;34.03;23.65;;;;;;;4.71;68.51;102848.28;5094353;28;20020;-83
2022/03/25 06:22:43;;;;;;;35.30;24.17;;;;;;;4.77;67.94;102849.59;5110071;28;20020;-83
2022/03/25 06:25:11;;;;;;;36.17;24.85;;;;;;;4.81;68.34;102844.81;5111068;28;20039;-81
2022/03/25 06:27:54;;;;;;;37.00;25.92;;;;;;;4.86;67.06;102848.84;5094319;28;20020;-81
2022/03/25 06:30:27;;;;;;;34.70;25.75;;;;;;;4.88;68.34;102837.94;5110546;28;20444;-88
2022/03/25 06:32:54;;;;;;;35.45;24.10;;;;;;;4.91;68.94;102851.97;5110315;28;20401;-86
2022/03/25 06:35:22;;;;;;;35.45;24.50;;;;;;;4.96;68.11;102845.34;5111188;28;20020;-87
2022/03/25 06:37:49;;;;;;;35.78;24.85;;;;;;;5.02;68.42;102864.53;5110391;28;20024;-86
2022/03/25 06:40:18;;;;;;;35.45;24.25;;;;;;;5.08;68.74;102872.09;5092980;28;20019;-85
2022/03/25 06:42:46;;;;;;;32.55;23.48;;;;;;;5.09;67.27;102865.75;5093341;28;20482;-85
2022/03/25 06:45:14;;;;;;;32.97;23.73;;;;;;;5.16;66.60;102860.66;5093177;28;20028;-85
2022/03/25 06:47:40;;;;;;;37.38;26.58;;;;;;;5.23;67.73;102861.03;5091801;28;20464;-84
2022/03/25 06:50:08;;;;;;;35.70;25.38;;;;;;;5.32;67.23;102864.78;5092524;28;20058;-81
2022/03/25 06:52:34;;;;;;;34.30;24.90;;;;;;;5.33;67.58;102856.56;5093209;28;20032;-81
2022/03/25 06:54:59;;;;;;;32.28;22.65;;;;;;;5.43;67.99;102873.63;5092522;28;20451;-81
2022/03/25 06:57:25;;;;;;;33.47;23.55;;;;;;;5.49;68.90;102857.91;5092362;28;20024;-80
2022/03/25 06:59:51;;;;;;;35.17;24.80;;;;;;;5.55;68.08;102863.63;5076213;28;20515;-81
2022/03/25 07:02:17;;;;;;;33.85;23.77;;;;;;;5.61;67.69;102868.50;5093921;28;20112;-81
2022/03/25 07:04:43;;;;;;;31.30;22.63;;;;;;;5.67;67.77;102863.53;5092583;28;20483;-81
2022/03/25 07:07:09;;;;;;;33.25;23.92;;;;;;;5.75;67.40;102869.13;5092328;28;20035;-81
2022/03/25 07:09:35;;;;;;;35.53;25.42;;;;;;;5.83;67.02;102871.13;5075323;28;20119;-81
2022/03/25 07:12:02;;;;;;;34.85;24.27;;;;;;;5.91;67.18;102877.56;5092211;28;20028;-80
2022/03/25 07:14:28;;;;;;;31.70;23.13;;;;;;;5.98;66.75;102877.94;5093038;28;20016;-82
2022/03/25 07:16:53;;;;;;;38.92;26.92;;;;;;;6.09;66.48;102882.34;5093015;28;20025;-82
2022/03/25 07:19:19;;;;;;;34.30;23.98;;;;;;;6.15;66.22;102888.03;5093358;28;20356;-82
2022/03/25 07:21:44;;;;;;;35.55;25.90;;;;;;;6.20;66.44;102878.69;5093840;28;20035;-82
2022/03/25 07:24:11;;;;;;;32.63;23.60;;;;;;;6.29;66.48;102884.13;5075291;28;20032;-81
2022/03/25 07:26:37;;;;;;;34.97;25.05;;;;;;;6.38;65.93;102889.69;5093286;28;20024;-82
2022/03/25 07:29:02;;;;;;;37.63;26.63;;;;;;;6.43;65.78;102899.06;5075372;28;20031;-82
2022/03/25 07:31:28;;;;;;;38.42;27.90;;;;;;;6.52;65.48;102894.69;5092089;28;20371;-82
2022/03/25 07:33:57;;;;;;;39.33;28.02;;;;;;;6.57;66.02;102891.56;5091103;28;20028;-83
2022/03/25 07:36:23;;;;;;;37.05;26.48;;;;;;;6.68;65.41;102897.69;5092370;28;20020;-83
2022/03/25 07:38:49;;;;;;;34.90;24.85;;;;;;;6.74;65.81;102899.00;5093001;28;20055;-82
2022/03/25 07:41:14;;;;;;;37.00;26.17;;;;;;;6.78;65.23;102900.41;5074885;28;20495;-82
2022/03/25 07:43:43;;;;;;;32.15;23.77;;;;;;;6.86;65.03;102905.09;5093177;28;20028;-82
2022/03/25 07:46:09;;;;;;;34.50;25.17;;;;;;;6.92;64.78;102895.59;5091753;28;20412;-82
2022/03/25 07:48:40;;;;;;;34.42;24.90;;;;;;;7.00;64.62;102907.41;5109100;28;20127;-88
2022/03/25 07:51:10;;;;;;;36.15;25.63;;;;;;;7.00;64.13;102901.16;5092454;28;20113;-88
2022/03/25 07:53:39;;;;;;;34.08;24.27;;;;;;;7.07;64.29;102907.69;5108565;28;20073;-88
2022/03/25 07:56:09;;;;;;;38.33;27.02;;;;;;;7.17;63.44;102915.78;5109124;28;20035;-87
2022/03/25 07:58:35;;;;;;;43.42;31.17;;;;;;;7.19;63.70;102920.06;5075531;28;20559;-88
2022/03/25 08:01:00;;;;;;;41.85;30.65;;;;;;;7.23;63.72;102914.38;5091826;28;20107;-89
2022/03/25 08:03:26;;;;;;;44.17;31.80;;;;;;;7.37;62.78;102936.38;5092223;28;20027;-89
2022/03/25 08:05:52;;;;;;;45.63;30.35;;;;;;;7.38;63.20;102924.59;5109271;28;20020;-89
2022/03/25 08:08:25;;;;;;;37.25;27.38;;;;;;;7.41;63.77;102915.38;5075642;28;20072;-89
2022/03/25 08:10:55;;;;;;;34.63;25.58;;;;;;;7.52;63.49;102927.84;5109374;28;20028;-89
2022/03/25 08:13:25;;;;;;;37.78;27.60;;;;;;;7.59;62.32;102917.31;5091782;28;20042;-89
2022/03/25 08:15:50;;;;;;;36.75;26.70;;;;;;;7.67;62.35;102926.38;5092635;28;20066;-88
2022/03/25 08:18:16;;;;;;;33.28;24.35;;;;;;;7.76;62.69;102918.41;5092930;28;20020;-88
2022/03/25 08:20:47;;;;;;;33.78;24.27;;;;;;;7.86;61.75;102930.91;5092573;28;20035;-88
2022/03/25 08:29:13;;;;;;;29.90;21.58;;;;;;;8.14;61.59;102933.66;5096663;28;20201;-89
2022/03/25 08:31:39;;;;;;;29.50;21.17;;;;;;;8.31;60.62;102933.88;5097048;28;20077;-88
2022/03/25 08:34:07;;;;;;;31.38;21.50;;;;;;;8.40;59.67;102944.66;5096125;28;20126;-88
2022/03/25 08:36:35;;;;;;;30.27;20.95;;;;;;;8.51;59.89;102946.34;5095453;28;20055;-88
2022/03/25 08:39:06;;;;;;;35.47;23.90;;;;;;;8.53;58.69;102930.81;5095463;28;20024;-89
2022/03/25 08:41:34;;;;;;;34.80;23.38;;;;;;;8.69;58.32;102950.94;5096236;28;20036;-88
2022/03/25 08:44:00;;;;;;;33.88;23.48;;;;;;;8.76;57.79;102947.47;5096137;28;20027;-88
2022/03/25 08:46:28;;;;;;;28.95;20.60;;;;;;;8.86;58.03;102944.72;5095180;28;20380;-88
2022/03/25 08:48:57;;;;;;;29.90;20.65;;;;;;;8.98;57.58;102950.75;5095242;28;20024;-88
2022/03/25 08:51:24;;;;;;;32.38;22.73;;;;;;;9.04;56.80;102936.59;5094889;28;20028;-88
2022/03/25 08:53:56;;;;;;;30.85;21.75;;;;;;;9.09;56.39;102942.44;5078214;28;20040;-88
2022/03/25 08:56:25;;;;;;;31.45;21.42;;;;;;;9.16;55.36;102942.66;5112704;28;20020;-88
2022/03/25 08:58:58;;;;;;;30.80;20.40;;;;;;;9.24;55.00;102940.03;5077812;28;20052;-88
2022/03/25 09:01:30;;;;;;;34.30;23.38;;;;;;;9.36;55.64;102948.78;5096577;28;20095;-89
2022/03/25 09:03:56;;;;;;;34.58;22.67;;;;;;;9.45;55.44;102953.25;5112083;28;20111;-89
2022/03/25 09:06:22;;;;;;;32.22;21.95;;;;;;;9.51;54.71;102945.47;5094702;28;20027;-88
2022/03/25 09:08:47;;;;;;;33.42;21.80;;;;;;;9.62;54.22;102951.50;5094955;28;20028;-89
2022/03/25 09:11:20;;;;;;;34.63;23.45;;;;;;;9.70;54.97;102952.56;5111224;28;20020;-89
2022/03/25 09:13:50;;;;;;;32.47;22.27;;;;;;;9.80;54.50;102948.78;5078403;28;20031;-89
2022/03/25 09:16:19;;;;;;;38.42;25.73;;;;;;;9.90;53.90;102953.22;5095681;28;20024;-89
2022/03/25 09:18:44;;;;;;;31.38;22.25;;;;;;;9.98;53.44;102953.25;5111827;28;20036;-88
2022/03/25 09:21:13;;;;;;;32.00;21.63;;;;;;;10.08;53.14;102955.88;5111479;28;20413;-89
2022/03/25 09:23:48;;;;;;;28.77;19.95;;;;;;;10.17;53.23;102958.50;5112191;28;20020;-88
2022/03/25 09:26:13;;;;;;;37.60;24.38;;;;;;;10.33;52.98;102965.00;5096046;28;20024;-88
2022/03/25 09:28:42;;;;;;;35.05;23.80;;;;;;;10.40;51.94;102962.53;5111809;28;20085;-88
2022/03/25 09:31:18;;;;;;;31.35;21.33;;;;;;;10.52;52.43;102950.38;5094984;28;20432;-88
2022/03/25 09:33:46;;;;;;;31.60;21.73;;;;;;;10.64;51.86;102954.47;5094654;28;20360;-88
2022/03/25 09:36:24;;;;;;;37.15;23.85;;;;;;;10.77;50.44;102962.16;5095442;28;20475;-91
2022/03/25 09:38:52;;;;;;;36.30;24.27;;;;;;;10.86;48.58;102955.72;5094618;28;20367;-89
2022/03/25 09:41:18;;;;;;;33.15;22.42;;;;;;;10.96;48.53;102952.03;5094403;28;20138;-89
2022/03/25 09:43:51;;;;;;;32.22;21.38;;;;;;;11.08;49.04;102944.41;5093159;28;20123;-89
2022/03/25 09:46:19;;;;;;;29.45;20.35;;;;;;;11.23;48.09;102951.75;5111179;28;20016;-89
2022/03/25 09:48:48;;;;;;;34.30;22.95;;;;;;;11.29;48.68;102946.63;5093774;28;20101;-89
2022/03/25 09:51:15;;;;;;;32.00;21.48;;;;;;;11.45;47.70;102954.78;5110611;28;20059;-89
2022/03/25 09:53:47;;;;;;;34.40;21.90;;;;;;;11.64;47.21;102947.31;5110693;28;20048;-89
2022/03/25 09:56:20;;;;;;;33.17;21.08;;;;;;;11.79;47.34;102952.91;5094721;28;20070;-87
2022/03/25 09:58:46;;;;;;;26.45;17.60;;;;;;;11.99;46.07;102947.97;5093212;28;20048;-87
2022/03/25 10:01:11;;;;;;;23.80;15.82;;;;;;;12.09;46.23;102935.88;5094531;28;20036;-87
2022/03/25 10:03:40;;;;;;;24.50;15.70;;;;;;;12.25;45.11;102948.59;5110425;28;20195;-87
2022/03/25 10:06:12;;;;;;;21.80;14.00;;;;;;;12.45;46.11;102945.44;5094431;28;20032;-87
2022/03/25 10:08:41;;;;;;;23.88;14.82;;;;;;;12.62;44.87;102944.34;5110288;28;20020;-87
2022/03/25 10:11:32;;;;;;;25.10;16.52;;;;;;;12.73;45.46;102937.66;5109940;28;20065;-87
2022/03/25 10:14:33;;;;;;;21.83;14.27;;;;;;;12.95;45.35;102946.03;5093104;28;20118;-87
2022/03/25 10:17:13;;;;;;;28.23;17.85;;;;;;;13.12;43.82;102944.91;5012736;28;20057;-87
2022/03/25 10:22:37;;;;;;;22.95;15.48;;;;;;;13.37;40.28;102928.38;5108067;28;20138;-87
2022/03/25 10:25:09;;;;;;;21.88;13.98;;;;;;;13.53;39.91;102932.00;5110219;28;20048;-87
2022/03/25 10:27:38;;;;;;;21.52;13.82;;;;;;;13.67;39.91;102925.72;5094727;28;20031;-88
2022/03/25 10:30:09;;;;;;;22.23;13.77;;;;;;;13.86;39.49;102932.50;5109880;28;20044;-88
2022/03/25 10:32:39;;;;;;;23.98;15.43;;;;;;;13.98;39.71;102930.16;5094712;28;20042;-88
2022/03/25 10:35:14;;;;;;;22.48;15.05;;;;;;;14.13;40.50;102928.31;5093514;28;20035;-89
2022/03/25 10:37:58;;;;;;;22.90;15.30;;;;;;;14.29;39.02;102927.28;5093442;28;20032;-88
2022/03/25 10:40:24;;;;;;;22.23;14.82;;;;;;;14.48;38.72;102931.31;5092556;28;20028;-88
2022/03/25 10:43:08;;;;;;;24.27;14.93;;;;;;;14.68;39.23;102917.91;5092970;28;20156;-88
2022/03/25 10:45:45;;;;;;;22.25;14.00;;;;;;;14.83;38.59;102922.47;5109229;28;20024;-88
2022/03/25 10:48:21;;;;;;;19.58;13.13;;;;;;;15.07;37.36;102924.00;5094112;28;20028;-89
2022/03/25 10:51:16;;;;;;;17.42;11.50;;;;;;;15.43;37.45;102937.59;5093442;28;20448;-88
2022/03/25 10:53:47;;;;;;;20.73;12.00;;;;;;;15.71;36.01;102927.72;5107146;28;20032;-88
2022/03/25 10:56:16;;;;;;;19.95;12.18;;;;;;;15.88;34.98;102923.63;5092517;28;20115;-88
2022/03/25 10:58:59;;;;;;;18.58;11.82;;;;;;;16.14;36.89;102920.22;5092188;28;20043;-88
2022/03/25 11:01:37;;;;;;;21.20;13.38;;;;;;;16.43;35.39;102914.66;5092288;28;20020;-88
2022/03/25 11:04:07;;;;;;;21.02;13.95;;;;;;;16.65;32.33;102912.63;5092982;28;20024;-88
2022/03/25 11:06:39;;;;;;;18.95;12.48;;;;;;;16.84;33.99;102913.75;5091534;28;20118;-88
2022/03/25 11:09:08;;;;;;;20.83;13.63;;;;;;;17.06;33.37;102924.59;5109326;28;20016;-89
2022/03/25 11:11:37;;;;;;;20.27;13.18;;;;;;;17.34;32.63;102902.44;5093497;28;20016;-88
2022/03/25 11:14:04;;;;;;;18.42;11.07;;;;;;;17.77;32.13;102912.13;5093194;28;20341;-88
2022/03/25 11:16:36;;;;;;;19.98;12.60;;;;;;;18.13;32.57;102914.41;5108969;28;20024;-89
2022/03/25 11:19:02;;;;;;;21.85;13.25;;;;;;;18.76;32.01;102899.09;5092034;28;20032;-88
2022/03/25 11:21:30;;;;;;;22.13;14.10;;;;;;;20.70;29.33;102900.03;5092384;28;20093;-88
2022/03/25 11:24:04;;;;;;;20.63;13.90;;;;;;;23.78;26.15;102896.47;5093430;28;20032;-87
2022/03/25 11:26:37;;;;;;;16.70;11.75;;;;;;;26.83;23.57;102898.69;5109297;28;20031;-89
2022/03/25 11:29:12;;;;;;;15.00;10.27;;;;;;;29.39;21.29;102892.38;5076338;28;20453;-88
2022/03/25 11:32:07;;;;;;;17.20;11.50;;;;;;;31.25;20.91;102902.75;5109307;28;20016;-88
2022/03/25 11:34:45;;;;;;;16.85;11.20;;;;;;;32.95;17.06;102882.31;5109196;28;20452;-88
2022/03/25 11:37:29;;;;;;;15.52;11.25;;;;;;;34.35;18.23;102880.09;5093869;28;20028;-89
2022/03/25 11:40:29;;;;;;;14.23;10.18;;;;;;;35.71;17.62;102883.66;5093697;28;20417;-88
2022/03/25 11:43:03;;;;;;;15.43;10.88;;;;;;;36.23;13.03;102874.03;5055945;28;20039;-88